NCAR-RAP Real-Time Weather Data

Output produced by METARs form (12 August 2020  18:54 UTC)
found at http://weather.rap.ucar.edu/surface/
 
KMCE 121753Z AUTO VRB04KT 10SM CLR 28/13 A2990 RMK AO2 SLP124 T02780133 10278 20167 51005
KMCE 121653Z AUTO 30004KT 10SM CLR 25/13 A2990 RMK AO2 SLP124 T02500133
KMCE 121553Z AUTO 32005KT 10SM CLR 22/13 A2989 RMK AO2 SLP122 T02220128
KMCE 121453Z AUTO 34005KT 10SM CLR 19/13 A2989 RMK AO2 SLP120 T01940128 53016
KMCE 121353Z AUTO 31004KT 10SM CLR 18/13 A2987 RMK AO2 SLP113 T01780128 TSNO
KMCE 121253Z AUTO 33006KT 10SM CLR 17/12 A2985 RMK AO2 SLP106 T01720122 TSNO
KMCE 121153Z AUTO 32003KT 10SM CLR 19/13 A2984 RMK AO2 SLP102 T01890128 10250 20183 53001 TSNO $
KMCE 121053Z AUTO 30004KT 10SM CLR 19/12 A2983 RMK AO2 SLP100 T01940122 TSNO $
KMCE 120953Z AUTO 30005KT 10SM CLR 21/13 A2983 RMK AO2 SLP100 T02060128 TSNO $
KMCE 120853Z AUTO 31005KT 10SM CLR 22/12 A2984 RMK AO2 SLP101 T02220122 58001 $
KMCE 120753Z AUTO 32008KT 10SM CLR 22/12 A2985 RMK AO2 SLP104 T02220122 403610178 $
KMCE 120653Z AUTO 33008KT 10SM CLR 24/13 A2985 RMK AO2 SLP104 T02390128 $
KMCE 120553Z AUTO 32007KT 10SM CLR 25/13 A2984 RMK AO2 SLP102 T02500133 10361 20250 50014 $
KMCE 120453Z AUTO 32008KT 10SM CLR 26/14 A2984 RMK AO2 SLP102 T02610144 $
KMCE 120353Z AUTO 33007KT 10SM CLR 28/14 A2981 RMK AO2 SLP095 T02780144
KMCE 120253Z AUTO 33009KT 10SM CLR 30/13 A2980 RMK AO2 SLP089 T03000133 55001
KMCE 120153Z AUTO 34010KT 10SM CLR 33/13 A2979 RMK AO2 SLP085 T03330133
KMCE 120053Z AUTO 33010KT 10SM CLR 35/13 A2979 RMK AO2 SLP085 T03500133